<?xml version='1.0' encoding='UTF-8'?>
<gpx xmlns="http://www.topografix.com/GPX/1/1" creator="www.balnam.be" version="1.1" xmlns:xsi="http://www.w3.org/2001/XMLSchema-instance" xsi:schemaLocation="http://www.topografix.com/GPX/1/1 http://www.topografix.com/GPX/1/1/gpx.xsd">
<trk>
<name>nvsbhLv524</name>
<cmt>v</cmt>
<desc>Bohan Chemin n°Lv524 </desc>
<link href="https://chemins.be/bohan/chemin/Lv524"/><trkseg>
<trkpt lat="49.869036" lon="4.892429"><time>2026-05-02T23:10:03Z</time></trkpt>
<trkpt lat="49.868958" lon="4.891891"><time>2026-05-02T23:20:03Z</time></trkpt>
<trkpt lat="49.868562" lon="4.888838"><time>2026-05-02T23:30:03Z</time></trkpt>
<trkpt lat="49.868287" lon="4.886499"><time>2026-05-02T23:40:03Z</time></trkpt>
</trkseg></trk>
<trk>
<name>nvsbhLv524</name>
<cmt>d</cmt>
<desc>Bohan Chemin n°Lv524 </desc>
<link href="https://chemins.be/bohan/chemin/Lv524"/><trkseg>
<trkpt lat="49.868287" lon="4.886499"><time>2026-05-02T23:40:03Z</time></trkpt>
<trkpt lat="49.868205" lon="4.885835"><time>2026-05-02T23:50:03Z</time></trkpt>
</trkseg></trk>
<trk>
<name>nvsbhLv524</name>
<cmt>v</cmt>
<desc>Bohan Chemin n°Lv524 </desc>
<link href="https://chemins.be/bohan/chemin/Lv524"/><trkseg>
<trkpt lat="49.868205" lon="4.885835"><time>2026-05-02T23:50:03Z</time></trkpt>
<trkpt lat="49.868143" lon="4.885144"><time>2026-05-03T00:00:03Z</time></trkpt>
</trkseg></trk>
<trk>
<name>nvsbhLv524</name>
<cmt>r</cmt>
<desc>Bohan Chemin n°Lv524 </desc>
<link href="https://chemins.be/bohan/chemin/Lv524"/><trkseg>
<trkpt lat="49.868143" lon="4.885144"><time>2026-05-03T00:00:03Z</time></trkpt>
<trkpt lat="49.867973" lon="4.884836"><time>2026-05-03T00:10:03Z</time></trkpt>
<trkpt lat="49.867744" lon="4.884695"><time>2026-05-03T00:20:03Z</time></trkpt>
<trkpt lat="49.866544" lon="4.884793"><time>2026-05-03T00:30:03Z</time></trkpt>
<trkpt lat="49.866077" lon="4.884621"><time>2026-05-03T00:40:03Z</time></trkpt>
<trkpt lat="49.865647" lon="4.884366"><time>2026-05-03T00:50:03Z</time></trkpt>
<trkpt lat="49.865345" lon="4.883542"><time>2026-05-03T01:00:03Z</time></trkpt>
<trkpt lat="49.865413" lon="4.882416"><time>2026-05-03T01:10:03Z</time></trkpt>
<trkpt lat="49.865639" lon="4.882001"><time>2026-05-03T01:20:03Z</time></trkpt>
<trkpt lat="49.865805" lon="4.881057"><time>2026-05-03T01:30:03Z</time></trkpt>
<trkpt lat="49.866240" lon="4.880269"><time>2026-05-03T01:40:03Z</time></trkpt>
<trkpt lat="49.866466" lon="4.880091"><time>2026-05-03T01:50:03Z</time></trkpt>
<trkpt lat="49.866809" lon="4.879705"><time>2026-05-03T02:00:03Z</time></trkpt>
<trkpt lat="49.869449" lon="4.878481"><time>2026-05-03T02:10:03Z</time></trkpt>
<trkpt lat="49.873001" lon="4.878296"><time>2026-05-03T02:20:03Z</time></trkpt>
<trkpt lat="49.878653" lon="4.872916"><time>2026-05-03T02:30:03Z</time></trkpt>
<trkpt lat="49.879045" lon="4.871724"><time>2026-05-03T02:40:03Z</time></trkpt>
</trkseg>
</trk>
</gpx>